createdAt,value
2023-05-08T00:00:14.865Z,10.87
2023-05-08T00:02:44.296Z,11.70
2023-05-08T00:05:12.288Z,11.10
2023-05-08T00:07:40.487Z,11.10
2023-05-08T00:10:10.561Z,11.57
2023-05-08T00:12:38.599Z,10.87
2023-05-08T00:15:07.682Z,10.43
2023-05-08T00:17:35.538Z,11.63
2023-05-08T00:20:05.116Z,10.70
2023-05-08T00:22:32.920Z,10.43
2023-05-08T00:25:00.833Z,10.43
2023-05-08T00:27:28.658Z,10.20
2023-05-08T00:29:56.630Z,10.97
2023-05-08T00:32:24.711Z,11.03
2023-05-08T00:34:54.290Z,10.57
2023-05-08T00:37:23.803Z,9.80
2023-05-08T00:39:52.092Z,10.70
2023-05-08T00:42:19.968Z,10.53
2023-05-08T00:44:48.040Z,10.60
2023-05-08T00:47:16.418Z,11.40
2023-05-08T00:49:44.408Z,10.70
2023-05-08T00:52:13.042Z,11.20
2023-05-08T00:54:42.408Z,11.37
2023-05-08T00:57:10.298Z,10.90
2023-05-08T00:59:38.294Z,10.70
2023-05-08T01:02:06.485Z,11.43
2023-05-08T01:04:34.660Z,11.47
2023-05-08T01:07:02.848Z,10.70
2023-05-08T01:09:30.821Z,11.63
2023-05-08T01:12:08.900Z,10.77
2023-05-08T01:14:46.964Z,12.47
2023-05-08T01:17:18.883Z,12.57
2023-05-08T01:19:58.807Z,11.60
2023-05-08T01:22:45.431Z,11.63
2023-05-08T01:25:37.439Z,10.40
2023-05-08T01:28:52.377Z,11.80
2023-05-08T01:31:27.127Z,11.67
2023-05-08T01:34:01.128Z,12.10
2023-05-08T01:36:33.455Z,11.10
2023-05-08T01:39:06.874Z,10.87
2023-05-08T01:41:35.821Z,11.03
2023-05-08T01:44:10.775Z,11.17
2023-05-08T01:46:38.691Z,12.20
2023-05-08T01:49:09.691Z,11.00
2023-05-08T01:51:41.959Z,11.90
2023-05-08T01:54:12.415Z,12.50
2023-05-08T01:56:42.114Z,12.73
2023-05-08T01:59:11.301Z,12.83
2023-05-08T02:01:40.506Z,12.43
2023-05-08T02:04:09.976Z,12.70
2023-05-08T02:06:38.644Z,12.47
2023-05-08T02:09:08.839Z,12.63
2023-05-08T02:11:40.959Z,11.93
2023-05-08T02:14:10.107Z,12.37
2023-05-08T02:16:38.821Z,11.87
2023-05-08T02:19:10.357Z,11.93
2023-05-08T02:21:38.476Z,11.23
2023-05-08T02:24:07.296Z,12.17
2023-05-08T02:26:35.641Z,11.10
2023-05-08T02:29:04.183Z,11.07
2023-05-08T02:31:32.239Z,10.83
2023-05-08T02:34:00.967Z,10.37
2023-05-08T02:36:30.595Z,9.80
2023-05-08T02:39:00.061Z,10.20
2023-05-08T02:41:30.966Z,9.93
2023-05-08T02:43:58.900Z,9.77
2023-05-08T02:46:30.182Z,9.90
2023-05-08T02:49:01.539Z,9.47
2023-05-08T02:51:40.818Z,10.30
2023-05-08T02:54:11.895Z,9.63
2023-05-08T02:56:42.316Z,9.37
2023-05-08T02:59:15.281Z,10.27
2023-05-08T03:01:49.533Z,10.43
2023-05-08T03:04:23.888Z,10.40
2023-05-08T03:06:54.042Z,10.30
2023-05-08T03:09:26.902Z,9.50
2023-05-08T03:12:00.621Z,10.47
2023-05-08T03:14:29.921Z,10.57
2023-05-08T03:16:59.353Z,9.97
2023-05-08T03:19:29.723Z,9.97
2023-05-08T03:22:02.440Z,9.83
2023-05-08T03:24:31.714Z,9.50
2023-05-08T03:27:00.385Z,9.10
2023-05-08T03:29:28.956Z,9.03
2023-05-08T03:31:58.365Z,8.57
2023-05-08T03:34:26.669Z,9.00
2023-05-08T03:36:54.522Z,8.23
2023-05-08T03:39:23.993Z,9.07
2023-05-08T03:41:52.134Z,9.13
2023-05-08T03:44:20.241Z,8.50
2023-05-08T03:46:48.920Z,8.10
2023-05-08T03:49:17.221Z,8.70
2023-05-08T03:51:45.858Z,9.00
2023-05-08T03:54:15.422Z,8.30
2023-05-08T03:56:45.952Z,8.03
2023-05-08T03:59:18.457Z,9.00
2023-05-08T04:01:51.595Z,8.40
2023-05-08T04:04:24.285Z,8.50
2023-05-08T04:06:57.950Z,8.30
2023-05-08T04:09:37.230Z,9.13
2023-05-08T04:12:11.301Z,9.80
2023-05-08T04:14:43.924Z,8.50
2023-05-08T04:17:14.386Z,9.57
2023-05-08T04:19:48.291Z,9.37
2023-05-08T04:22:18.140Z,9.30
2023-05-08T04:24:48.011Z,9.37
2023-05-08T04:27:18.758Z,9.97
2023-05-08T04:29:46.850Z,10.10
2023-05-08T04:32:15.012Z,10.03
2023-05-08T04:34:43.077Z,9.63
2023-05-08T04:37:11.002Z,9.63
2023-05-08T04:39:43.773Z,9.57
2023-05-08T04:42:11.923Z,10.13
2023-05-08T04:44:41.200Z,9.97
2023-05-08T04:47:09.113Z,10.00
2023-05-08T04:49:37.187Z,10.80
2023-05-08T04:52:06.474Z,9.13
2023-05-08T04:54:34.438Z,9.60
2023-05-08T04:57:02.463Z,10.00
2023-05-08T04:59:30.469Z,10.10
2023-05-08T05:02:02.410Z,9.50
2023-05-08T05:04:31.628Z,8.57
2023-05-08T05:07:00.410Z,9.80
2023-05-08T05:09:29.033Z,9.60
2023-05-08T05:11:58.160Z,9.83
2023-05-08T05:14:26.456Z,9.83
2023-05-08T05:16:54.381Z,10.20
2023-05-08T05:19:23.610Z,9.77
2023-05-08T05:21:51.750Z,10.43
2023-05-08T05:24:19.743Z,9.90
2023-05-08T05:26:47.597Z,10.00
2023-05-08T05:29:17.087Z,10.30
2023-05-08T05:31:45.077Z,10.23
2023-05-08T05:34:13.317Z,10.00
2023-05-08T05:36:43.124Z,10.53
2023-05-08T05:39:11.305Z,10.23
2023-05-08T05:41:39.990Z,9.53
2023-05-08T05:44:07.926Z,10.30
2023-05-08T05:46:36.123Z,10.17
2023-05-08T05:49:04.929Z,10.40
2023-05-08T05:51:34.256Z,9.80
2023-05-08T05:54:03.651Z,10.10
2023-05-08T05:56:31.512Z,10.47
2023-05-08T05:58:59.464Z,10.67
2023-05-08T06:01:29.161Z,9.80
2023-05-08T06:03:57.770Z,9.60
2023-05-08T06:06:25.890Z,10.87
2023-05-08T06:08:55.361Z,9.50
2023-05-08T06:11:25.677Z,10.33
2023-05-08T06:13:53.642Z,9.37
2023-05-08T06:16:23.236Z,10.20
2023-05-08T06:18:51.252Z,10.73
2023-05-08T06:21:19.129Z,10.30
2023-05-08T06:23:47.024Z,9.67
2023-05-08T06:26:14.925Z,9.70
2023-05-08T06:28:45.351Z,10.00
2023-05-08T06:31:13.236Z,10.07
2023-05-08T06:33:41.139Z,9.47
2023-05-08T06:36:09.643Z,9.00
2023-05-08T06:38:37.484Z,9.70
2023-05-08T06:41:05.387Z,9.40
2023-05-08T06:43:36.030Z,9.73
2023-05-08T06:46:05.654Z,10.17
2023-05-08T06:48:33.642Z,10.70
2023-05-08T06:51:02.149Z,10.10
2023-05-08T06:53:29.958Z,9.80
2023-05-08T06:55:58.824Z,9.93
2023-05-08T06:58:26.719Z,10.23
2023-05-08T07:00:54.559Z,9.80
2023-05-08T07:03:23.798Z,9.13
2023-05-08T07:05:51.675Z,9.43
2023-05-08T07:08:19.493Z,9.13
2023-05-08T07:10:47.303Z,8.90
2023-05-08T07:13:15.220Z,8.73
2023-05-08T07:15:43.253Z,9.40
2023-05-08T07:18:11.267Z,9.10
2023-05-08T07:20:40.654Z,8.77
2023-05-08T07:23:08.664Z,9.63
2023-05-08T07:25:36.528Z,9.00
2023-05-08T07:28:04.521Z,9.40
2023-05-08T07:30:32.705Z,9.40
2023-05-08T07:33:00.590Z,9.23
2023-05-08T07:35:29.485Z,9.03
2023-05-08T07:37:58.719Z,8.50
2023-05-08T07:40:26.557Z,9.00
2023-05-08T07:42:54.473Z,9.40
2023-05-08T07:45:22.541Z,8.53
2023-05-08T07:47:51.608Z,8.90
2023-05-08T07:50:20.245Z,8.67
2023-05-08T07:52:49.936Z,9.73
2023-05-08T07:55:19.915Z,8.63
2023-05-08T07:57:47.793Z,9.33
2023-05-08T08:00:16.751Z,8.60
2023-05-08T08:02:45.211Z,9.03
2023-05-08T08:05:13.787Z,8.80
2023-05-08T08:07:41.915Z,9.23
2023-05-08T08:10:10.276Z,8.83
2023-05-08T08:12:40.172Z,8.40
2023-05-08T08:15:08.947Z,8.00
2023-05-08T08:17:37.741Z,8.77
2023-05-08T08:20:06.690Z,8.73
2023-05-08T08:22:34.528Z,8.33
2023-05-08T08:25:02.912Z,8.27
2023-05-08T08:27:33.432Z,8.93
2023-05-08T08:30:15.693Z,8.10
2023-05-08T08:32:44.597Z,9.07
2023-05-08T08:35:13.137Z,8.47
2023-05-08T08:37:41.347Z,8.27
2023-05-08T08:40:10.076Z,9.47
2023-05-08T08:42:37.900Z,8.80
2023-05-08T08:45:08.459Z,8.07
2023-05-08T08:47:38.275Z,8.40
2023-05-08T08:50:07.753Z,7.97
2023-05-08T08:52:40.857Z,8.53
2023-05-08T08:55:11.625Z,9.00
2023-05-08T08:57:46.994Z,8.90
2023-05-08T09:00:17.285Z,8.47
2023-05-08T09:02:45.289Z,9.30
2023-05-08T09:05:13.653Z,8.63
2023-05-08T09:07:43.838Z,8.30
2023-05-08T09:10:15.478Z,9.33
2023-05-08T09:12:45.049Z,9.60
2023-05-08T09:15:13.382Z,9.90
2023-05-08T09:17:42.915Z,9.03
2023-05-08T09:20:12.075Z,9.00
2023-05-08T09:22:40.065Z,9.10
2023-05-08T09:25:08.580Z,8.83
2023-05-08T09:27:36.825Z,8.80
2023-05-08T09:30:06.224Z,9.70
2023-05-08T09:32:35.121Z,9.63
2023-05-08T09:35:05.195Z,10.33
2023-05-08T09:37:33.892Z,9.50
2023-05-08T09:40:14.784Z,9.40
2023-05-08T09:42:43.301Z,9.90
2023-05-08T09:45:12.348Z,10.27
2023-05-08T09:47:40.392Z,9.40
2023-05-08T09:50:11.740Z,10.10
2023-05-08T09:52:40.692Z,9.40
2023-05-08T09:55:10.742Z,9.23
2023-05-08T09:57:39.886Z,9.53
2023-05-08T10:00:12.865Z,9.50
2023-05-08T10:02:42.429Z,9.30
2023-05-08T10:05:26.343Z,9.73
2023-05-08T10:07:54.326Z,8.80
2023-05-08T10:10:27.452Z,9.93
2023-05-08T10:12:56.647Z,9.33
2023-05-08T10:15:25.806Z,9.73
2023-05-08T10:17:56.307Z,9.80
2023-05-08T10:20:26.766Z,9.30
2023-05-08T10:22:55.508Z,10.13
2023-05-08T10:25:24.110Z,9.57
2023-05-08T10:27:57.386Z,10.03
2023-05-08T10:30:26.142Z,8.90
2023-05-08T10:32:55.691Z,9.30
2023-05-08T10:35:25.374Z,9.33
2023-05-08T10:37:53.366Z,9.50
2023-05-08T10:40:21.903Z,9.00
2023-05-08T10:42:50.334Z,9.00
2023-05-08T10:45:18.497Z,8.80
2023-05-08T10:47:53.307Z,8.33
2023-05-08T10:50:34.979Z,7.43
2023-05-08T10:53:08.154Z,8.20
2023-05-08T10:55:38.013Z,8.73
2023-05-08T10:58:08.051Z,8.30
2023-05-08T11:01:14.137Z,7.20
2023-05-08T11:03:51.345Z,7.27
2023-05-08T11:06:44.394Z,6.90
2023-05-08T11:09:23.092Z,7.80
2023-05-08T11:12:05.474Z,8.20
2023-05-08T11:14:34.891Z,7.80
2023-05-08T11:17:09.764Z,8.20
2023-05-08T11:19:38.565Z,9.13
2023-05-08T11:22:23.156Z,9.33
2023-05-08T11:24:56.513Z,8.77
2023-05-08T11:27:38.666Z,10.47
2023-05-08T11:30:26.880Z,8.80
2023-05-08T11:33:14.614Z,9.10
2023-05-08T11:35:47.321Z,9.03
2023-05-08T11:38:28.323Z,9.83
2023-05-08T11:40:59.007Z,8.60
2023-05-08T11:43:28.385Z,8.40
2023-05-08T11:46:01.405Z,8.73
2023-05-08T11:48:29.233Z,10.43
2023-05-08T11:50:57.177Z,9.60
2023-05-08T11:53:26.479Z,10.13
2023-05-08T11:55:54.659Z,10.30
2023-05-08T11:58:22.678Z,9.90
2023-05-08T12:00:51.086Z,9.33
2023-05-08T12:03:20.512Z,9.60
2023-05-08T12:05:49.073Z,9.97
2023-05-08T12:08:18.314Z,9.97
2023-05-08T12:10:52.624Z,9.47
2023-05-08T12:13:21.956Z,9.37
2023-05-08T12:15:51.316Z,8.43
2023-05-08T12:18:19.221Z,10.07
2023-05-08T12:20:47.777Z,10.03
2023-05-08T12:23:15.737Z,10.50
2023-05-08T12:25:43.711Z,10.07
2023-05-08T12:28:13.456Z,9.80
2023-05-08T12:30:41.323Z,10.80
2023-05-08T12:33:09.544Z,10.60
2023-05-08T12:35:38.318Z,10.00
2023-05-08T12:38:08.000Z,11.10
2023-05-08T12:40:38.618Z,9.80
2023-05-08T12:43:06.597Z,10.80
2023-05-08T12:45:39.224Z,10.80
2023-05-08T12:48:08.469Z,10.20
2023-05-08T12:50:37.250Z,12.03
2023-05-08T12:53:05.742Z,9.80
2023-05-08T12:55:34.855Z,11.23
2023-05-08T12:58:04.720Z,10.47
2023-05-08T13:00:38.316Z,10.43
2023-05-08T13:03:06.587Z,11.53
2023-05-08T13:05:36.656Z,10.93
2023-05-08T13:08:05.729Z,10.90
2023-05-08T13:10:49.026Z,10.70
2023-05-08T13:13:18.188Z,10.77
2023-05-08T13:15:47.981Z,11.23
2023-05-08T13:18:16.425Z,11.87
2023-05-08T13:20:45.364Z,10.50
2023-05-08T13:23:13.624Z,11.33
2023-05-08T13:25:42.006Z,11.70
2023-05-08T13:28:10.762Z,11.77
2023-05-08T13:30:39.724Z,11.10
2023-05-08T13:33:09.117Z,10.80
2023-05-08T13:35:37.284Z,12.63
2023-05-08T13:38:06.104Z,11.83
2023-05-08T13:40:34.203Z,11.80
2023-05-08T13:43:02.072Z,13.03
2023-05-08T13:45:30.050Z,12.37
2023-05-08T13:47:58.026Z,12.10
2023-05-08T13:50:27.376Z,13.23
2023-05-08T13:52:55.401Z,11.53
2023-05-08T13:55:23.600Z,13.00
2023-05-08T13:57:51.912Z,11.80
2023-05-08T14:00:20.888Z,12.80
2023-05-08T14:02:50.820Z,11.37
2023-05-08T14:05:20.216Z,11.73
2023-05-08T14:07:49.419Z,12.10
2023-05-08T14:10:18.076Z,11.43
2023-05-08T14:12:46.673Z,10.50
2023-05-08T14:15:14.835Z,10.20
2023-05-08T14:17:43.334Z,11.10
2023-05-08T14:20:12.365Z,9.73
2023-05-08T14:22:40.369Z,9.87
2023-05-08T14:25:11.237Z,9.20
2023-05-08T14:27:40.138Z,9.63
2023-05-08T14:30:09.690Z,10.50
2023-05-08T14:32:37.652Z,9.83
2023-05-08T14:35:06.078Z,10.27
2023-05-08T14:37:33.944Z,9.43
2023-05-08T14:40:01.831Z,9.70
2023-05-08T14:42:31.059Z,9.20
2023-05-08T14:44:59.093Z,9.73
2023-05-08T14:47:27.108Z,10.60
2023-05-08T14:49:55.031Z,9.90
2023-05-08T14:52:22.917Z,10.43
2023-05-08T14:54:53.658Z,10.40
2023-05-08T14:57:21.906Z,10.60
2023-05-08T15:02:22.132Z,10.13
2023-05-08T15:04:50.147Z,10.83
2023-05-08T15:07:18.038Z,11.00
2023-05-08T15:09:45.960Z,10.73
2023-05-08T15:12:13.805Z,10.00
2023-05-08T15:14:41.627Z,10.53
2023-05-08T15:17:10.845Z,10.60
2023-05-08T15:19:38.664Z,9.93
2023-05-08T15:22:06.549Z,9.40
2023-05-08T15:24:34.526Z,10.63
2023-05-08T15:27:02.503Z,10.67
2023-05-08T15:29:30.318Z,10.30
2023-05-08T15:31:58.316Z,9.87
2023-05-08T15:34:32.422Z,10.30
2023-05-08T15:37:00.688Z,10.53
2023-05-08T15:39:28.524Z,8.30
2023-05-08T15:41:56.389Z,10.10
2023-05-08T15:44:26.524Z,9.60
2023-05-08T15:46:56.790Z,10.50
2023-05-08T15:49:26.048Z,9.50
2023-05-08T15:51:55.718Z,9.33
2023-05-08T15:54:23.823Z,10.20
2023-05-08T15:56:51.681Z,9.90
2023-05-08T15:59:19.971Z,10.17
2023-05-08T16:01:48.021Z,10.40
2023-05-08T16:04:16.157Z,10.40
2023-05-08T16:06:44.037Z,10.13
2023-05-08T16:09:13.227Z,10.57
2023-05-08T16:11:41.140Z,11.03
2023-05-08T16:14:09.427Z,10.73
2023-05-08T16:16:39.194Z,10.50
2023-05-08T16:19:07.035Z,10.13
2023-05-08T16:21:34.892Z,10.40
2023-05-08T16:24:02.881Z,10.20
2023-05-08T16:26:32.111Z,11.27
2023-05-08T16:28:59.993Z,10.60
2023-05-08T16:31:27.874Z,9.83
2023-05-08T16:33:55.829Z,10.50
2023-05-08T16:36:23.833Z,10.17
2023-05-08T16:38:51.766Z,9.50
2023-05-08T16:41:19.639Z,10.30
2023-05-08T16:43:48.922Z,10.27
2023-05-08T16:46:18.982Z,9.80
2023-05-08T16:48:54.561Z,10.73
2023-05-08T16:51:22.395Z,10.27
2023-05-08T16:53:50.348Z,9.97
2023-05-08T16:56:18.296Z,10.10
2023-05-08T16:58:46.232Z,10.97
2023-05-08T17:01:15.521Z,10.77
2023-05-08T17:03:43.479Z,9.77
2023-05-08T17:06:11.574Z,9.50
2023-05-08T17:08:39.438Z,9.93
2023-05-08T17:11:07.281Z,10.40
2023-05-08T17:13:35.129Z,9.70
2023-05-08T17:16:03.561Z,8.77
2023-05-08T17:18:32.895Z,9.70
2023-05-08T17:21:00.821Z,9.53
2023-05-08T17:23:29.221Z,9.73
2023-05-08T17:25:58.388Z,10.20
2023-05-08T17:28:26.216Z,10.20
2023-05-08T17:30:54.539Z,10.60
2023-05-08T17:33:22.353Z,10.10
2023-05-08T17:35:51.622Z,9.47
2023-05-08T17:38:19.432Z,10.03
2023-05-08T17:40:47.380Z,9.90
2023-05-08T17:43:15.247Z,9.87
2023-05-08T17:45:44.144Z,11.17
2023-05-08T17:48:15.131Z,9.37
2023-05-08T17:50:43.580Z,10.40
2023-05-08T17:53:12.827Z,10.57
2023-05-08T17:55:40.710Z,11.20
2023-05-08T17:58:08.678Z,9.57
2023-05-08T18:00:37.638Z,10.13
2023-05-08T18:03:06.016Z,10.30
2023-05-08T18:05:34.029Z,9.93
2023-05-08T18:08:02.129Z,10.93
2023-05-08T18:10:31.495Z,10.40
2023-05-08T18:12:59.454Z,10.93
2023-05-08T18:15:27.603Z,11.10
2023-05-08T18:17:55.646Z,10.37
2023-05-08T18:20:23.765Z,10.23
2023-05-08T18:22:54.351Z,10.50
2023-05-08T18:25:22.314Z,10.07
2023-05-08T18:27:51.820Z,11.97
2023-05-08T18:30:19.635Z,10.73
2023-05-08T18:32:47.738Z,10.63
2023-05-08T18:35:15.604Z,10.83
2023-05-08T18:37:43.452Z,10.77
2023-05-08T18:40:12.416Z,11.30
2023-05-08T18:42:40.431Z,12.00
2023-05-08T18:45:15.126Z,11.43
2023-05-08T18:47:43.533Z,11.93
2023-05-08T18:50:12.979Z,11.67
2023-05-08T18:52:41.096Z,11.00
2023-05-08T18:55:09.766Z,11.60
2023-05-08T18:57:37.663Z,11.63
2023-05-08T19:00:06.862Z,12.40
2023-05-08T19:02:36.278Z,11.47
2023-05-08T19:05:04.458Z,12.10
2023-05-08T19:07:32.367Z,11.80
2023-05-08T19:10:00.700Z,12.60
2023-05-08T19:12:28.590Z,11.97
2023-05-08T19:14:56.538Z,12.00
2023-05-08T19:17:24.492Z,11.67
2023-05-08T19:19:53.718Z,12.40
2023-05-08T19:22:21.695Z,12.50
2023-05-08T19:24:49.562Z,12.60
2023-05-08T19:27:17.888Z,12.57
2023-05-08T19:29:45.784Z,12.00
2023-05-08T19:32:13.704Z,13.17
2023-05-08T19:34:41.663Z,13.00
2023-05-08T19:37:10.866Z,12.30
2023-05-08T19:39:38.720Z,12.07
2023-05-08T19:42:06.662Z,12.03
2023-05-08T19:44:35.106Z,12.87
2023-05-08T19:47:04.144Z,13.50
2023-05-08T19:49:32.360Z,13.47
2023-05-08T19:52:01.666Z,13.43
2023-05-08T19:54:31.490Z,13.93
2023-05-08T19:56:59.386Z,13.70
2023-05-08T19:59:30.130Z,13.20
2023-05-08T20:01:58.048Z,14.10
2023-05-08T20:04:26.054Z,13.53
2023-05-08T20:06:53.933Z,12.27
2023-05-08T20:09:22.121Z,12.93
2023-05-08T20:11:51.652Z,12.83
2023-05-08T20:14:19.498Z,13.33
2023-05-08T20:16:47.441Z,14.00
2023-05-08T20:19:16.020Z,13.00
2023-05-08T20:21:43.931Z,14.00
2023-05-08T20:24:11.850Z,12.50
2023-05-08T20:26:39.923Z,12.40
2023-05-08T20:29:09.648Z,14.00
2023-05-08T20:31:37.695Z,13.20
2023-05-08T20:34:05.557Z,13.17
2023-05-08T20:36:33.570Z,12.90
2023-05-08T20:39:01.433Z,12.77
2023-05-08T20:41:29.359Z,13.30
2023-05-08T20:43:57.209Z,13.10
2023-05-08T20:46:27.059Z,12.73
2023-05-08T20:48:54.959Z,12.40
2023-05-08T20:51:22.815Z,13.17
2023-05-08T20:53:50.676Z,12.70
2023-05-08T20:56:19.229Z,13.60
2023-05-08T20:58:47.221Z,13.00
2023-05-08T21:01:15.120Z,12.50
2023-05-08T21:03:44.350Z,13.73
2023-05-08T21:06:12.531Z,11.50
2023-05-08T21:08:40.373Z,12.17
2023-05-08T21:11:08.705Z,12.57
2023-05-08T21:13:36.537Z,12.47
2023-05-08T21:16:05.714Z,11.47
2023-05-08T21:18:33.586Z,11.43
2023-05-08T21:21:02.812Z,12.67
2023-05-08T21:23:30.926Z,11.40
2023-05-08T21:25:58.752Z,11.03
2023-05-08T21:28:26.698Z,11.23
2023-05-08T21:30:54.548Z,11.30
2023-05-08T21:33:22.618Z,11.17
2023-05-08T21:35:50.495Z,10.93
2023-05-08T21:38:19.706Z,10.97
2023-05-08T21:40:47.585Z,11.10
2023-05-08T21:43:15.439Z,10.43
2023-05-08T21:45:43.287Z,11.07
2023-05-08T21:48:11.171Z,10.60
2023-05-08T21:50:39.048Z,10.27
2023-05-08T21:53:07.445Z,10.63
2023-05-08T21:55:36.668Z,10.77
2023-05-08T21:58:04.541Z,9.50
2023-05-08T22:00:32.418Z,9.33
2023-05-08T22:03:00.460Z,9.60
2023-05-08T22:05:28.513Z,10.03
2023-05-08T22:07:56.322Z,9.60
2023-05-08T22:10:25.580Z,9.63
2023-05-08T22:12:54.778Z,10.03
2023-05-08T22:15:29.728Z,9.60
2023-05-08T22:17:59.147Z,9.47
2023-05-08T22:20:27.121Z,10.00
2023-05-08T22:22:55.033Z,9.40
2023-05-08T22:25:22.949Z,9.80
2023-05-08T22:27:50.779Z,9.70
2023-05-08T22:30:20.205Z,9.83
2023-05-08T22:32:54.022Z,9.63
2023-05-08T22:35:24.384Z,10.50
2023-05-08T22:37:52.560Z,9.50
2023-05-08T22:40:21.415Z,9.80
2023-05-08T22:42:49.387Z,9.73
2023-05-08T22:45:17.506Z,9.87
2023-05-08T22:47:46.983Z,10.00
2023-05-08T22:50:15.001Z,10.17
2023-05-08T22:52:45.868Z,9.57
2023-05-08T22:55:15.371Z,9.90
2023-05-08T22:57:43.646Z,9.03
2023-05-08T23:00:12.989Z,9.10
2023-05-08T23:02:41.237Z,9.63
2023-05-08T23:05:11.021Z,10.47
2023-05-08T23:07:38.938Z,9.30
2023-05-08T23:10:07.677Z,9.63
2023-05-08T23:12:35.532Z,10.07
2023-05-08T23:15:03.448Z,10.90
2023-05-08T23:17:31.347Z,10.37
2023-05-08T23:19:59.179Z,9.97
2023-05-08T23:22:28.623Z,9.90
2023-05-08T23:24:56.464Z,11.30
2023-05-08T23:27:24.293Z,10.87
2023-05-08T23:29:52.149Z,11.00
2023-05-08T23:32:20.034Z,10.87
2023-05-08T23:34:48.060Z,10.13
2023-05-08T23:37:15.947Z,10.00
2023-05-08T23:39:45.145Z,9.70
2023-05-08T23:42:13.693Z,10.70
2023-05-08T23:44:41.551Z,10.60
2023-05-08T23:47:09.576Z,10.00
2023-05-08T23:49:37.382Z,9.93
2023-05-08T23:52:06.608Z,10.50
2023-05-08T23:54:34.443Z,10.80
2023-05-08T23:57:03.623Z,11.20
2023-05-08T23:59:31.491Z,11.40
